createdAt,value
2022-09-07T05:10:29.964Z,0.4
2022-09-07T05:26:12.361Z,4.4
2022-09-07T05:41:55.047Z,8.3
2022-09-07T05:57:37.971Z,8.2
2022-09-07T06:13:20.367Z,8
2022-09-07T06:29:02.774Z,8.6
2022-09-07T06:29:50.056Z,8.89
2022-09-07T06:45:32.887Z,9.7
2022-09-07T07:01:15.014Z,9.1
2022-09-07T07:16:57.705Z,8
2022-09-07T07:32:40.562Z,7.8
2022-09-07T07:48:22.897Z,7.9
2022-09-07T08:04:05.590Z,11.6
2022-09-07T08:19:47.890Z,9.8
2022-09-07T08:35:30.788Z,8.39
2022-09-07T08:51:12.811Z,9.1
2022-09-07T09:06:55.380Z,8.7
2022-09-07T09:22:38.054Z,9.3
2022-09-07T09:38:20.149Z,7.8
2022-09-07T09:54:02.535Z,8
2022-09-07T10:09:44.702Z,8.5
2022-09-07T10:25:26.579Z,10.5
2022-09-07T10:41:09.259Z,7.6
2022-09-07T10:56:51.262Z,10.4
2022-09-07T11:12:33.909Z,12.8
2022-09-07T11:28:16.285Z,9.5
2022-09-07T11:43:58.902Z,9.7
2022-09-07T11:59:41.642Z,11
2022-09-07T12:15:23.741Z,10.2
2022-09-07T12:31:06.549Z,10.4
2022-09-07T12:46:49.005Z,9
2022-09-07T13:02:31.659Z,9.1
2022-09-07T13:18:13.639Z,11.6
2022-09-07T13:33:55.831Z,10
2022-09-07T13:49:37.796Z,10
2022-09-07T14:05:20.324Z,9.8
2022-09-07T14:21:02.375Z,9.2
2022-09-07T14:36:44.522Z,10.4
2022-09-07T14:52:26.720Z,9.39
2022-09-07T15:08:09.052Z,9.8
2022-09-07T15:23:51.774Z,10.7
2022-09-07T15:39:34.533Z,10.1
2022-09-07T15:55:17.342Z,10.9
2022-09-07T16:10:59.465Z,10
